createdAt,value
2024-05-09T00:00:36.261Z,11.10
2024-05-09T00:03:10.997Z,10.90
2024-05-09T00:05:41.493Z,10.80
2024-05-09T00:08:12.551Z,10.80
2024-05-09T00:10:41.044Z,10.90
2024-05-09T00:13:10.433Z,11.00
2024-05-09T00:15:38.432Z,11.00
2024-05-09T00:18:07.654Z,10.90
2024-05-09T00:20:39.335Z,10.90
2024-05-09T00:23:12.621Z,10.90
2024-05-09T00:25:44.128Z,10.90
2024-05-09T00:28:12.699Z,10.90
2024-05-09T00:30:40.321Z,10.90
2024-05-09T00:33:09.228Z,10.90
2024-05-09T00:35:37.870Z,10.80
2024-05-09T00:38:05.602Z,10.70
2024-05-09T00:40:41.832Z,10.50
2024-05-09T00:43:11.959Z,10.50
2024-05-09T00:45:39.953Z,10.50
2024-05-09T00:48:09.477Z,10.70
2024-05-09T00:50:41.611Z,10.70
2024-05-09T00:53:14.429Z,10.70
2024-05-09T00:55:42.794Z,10.70
2024-05-09T00:58:12.520Z,10.70
2024-05-09T01:00:41.420Z,10.50
2024-05-09T01:03:12.017Z,10.60
2024-05-09T01:05:41.453Z,10.40
2024-05-09T01:08:09.998Z,10.30
2024-05-09T01:10:37.854Z,10.30
2024-05-09T01:13:05.962Z,10.20
2024-05-09T01:15:35.125Z,10.40
2024-05-09T01:18:11.812Z,10.50
2024-05-09T01:20:43.325Z,10.50
2024-05-09T01:23:14.876Z,10.50
2024-05-09T01:25:44.583Z,10.50
2024-05-09T01:28:12.762Z,10.40
2024-05-09T01:30:39.949Z,10.30
2024-05-09T01:33:09.546Z,10.30
2024-05-09T01:35:41.337Z,10.40
2024-05-09T01:38:10.053Z,10.30
2024-05-09T01:40:39.796Z,10.40
2024-05-09T01:43:09.212Z,10.30
2024-05-09T01:45:38.123Z,10.30
2024-05-09T01:48:05.882Z,10.30
2024-05-09T01:50:38.282Z,10.20
2024-05-09T01:53:14.762Z,10.20
2024-05-09T01:55:43.233Z,10.20
2024-05-09T01:58:10.897Z,10.10
2024-05-09T02:00:42.382Z,9.90
2024-05-09T02:03:15.586Z,10.00
2024-05-09T02:05:47.041Z,10.10
2024-05-09T02:08:21.321Z,10.10
2024-05-09T02:10:50.505Z,10.20
2024-05-09T02:13:18.213Z,10.20
2024-05-09T02:15:45.597Z,10.10
2024-05-09T02:18:13.432Z,10.00
2024-05-09T02:20:43.131Z,10.10
2024-05-09T02:23:11.406Z,10.00
2024-05-09T02:25:38.723Z,9.90
2024-05-09T02:28:06.344Z,10.00
2024-05-09T02:33:03.965Z,10.00
2024-05-09T02:35:31.365Z,10.00
2024-05-09T02:37:58.858Z,9.90
2024-05-09T02:40:35.048Z,10.00
2024-05-09T02:43:05.068Z,9.90
2024-05-09T02:45:32.536Z,9.90
2024-05-09T02:48:00.044Z,9.80
2024-05-09T02:50:34.471Z,9.80
2024-05-09T02:53:10.075Z,9.80
2024-05-09T02:55:40.749Z,9.80
2024-05-09T02:58:08.271Z,9.80
2024-05-09T03:00:39.783Z,9.80
2024-05-09T03:03:12.519Z,9.80
2024-05-09T03:05:42.361Z,9.80
2024-05-09T03:08:09.833Z,9.70
2024-05-09T03:10:38.804Z,9.70
2024-05-09T03:13:12.970Z,9.70
2024-05-09T03:15:41.584Z,9.60
2024-05-09T03:18:09.169Z,9.60
2024-05-09T03:20:37.281Z,9.60
2024-05-09T03:23:06.323Z,9.60
2024-05-09T03:25:34.019Z,9.50
2024-05-09T03:28:01.646Z,9.30
2024-05-09T03:30:39.023Z,9.20
2024-05-09T03:33:18.819Z,9.20
2024-05-09T03:35:49.184Z,9.40
2024-05-09T03:38:17.213Z,9.50
2024-05-09T03:40:49.744Z,9.50
2024-05-09T03:43:18.552Z,9.50
2024-05-09T03:45:47.464Z,9.40
2024-05-09T03:48:14.836Z,9.40
2024-05-09T03:50:42.424Z,9.40
2024-05-09T03:53:14.304Z,9.40
2024-05-09T03:55:41.603Z,9.30
2024-05-09T03:58:09.282Z,9.40
2024-05-09T04:00:39.412Z,9.30
2024-05-09T04:03:11.000Z,9.20
2024-05-09T04:05:41.932Z,9.30
2024-05-09T04:08:11.006Z,9.30
2024-05-09T04:10:38.544Z,9.30
2024-05-09T04:13:05.804Z,9.30
2024-05-09T04:15:33.176Z,9.20
2024-05-09T04:18:01.288Z,9.20
2024-05-09T04:20:37.264Z,9.30
2024-05-09T04:23:09.534Z,9.30
2024-05-09T04:25:37.746Z,9.30
2024-05-09T04:28:05.811Z,9.30
2024-05-09T04:30:38.743Z,9.20
2024-05-09T04:33:12.162Z,9.20
2024-05-09T04:35:42.739Z,9.20
2024-05-09T04:38:10.487Z,9.20
2024-05-09T04:40:38.182Z,9.20
2024-05-09T04:43:06.995Z,9.20
2024-05-09T04:45:35.129Z,9.30
2024-05-09T04:48:03.097Z,9.30
2024-05-09T04:50:36.752Z,9.30
2024-05-09T04:53:10.548Z,9.30
2024-05-09T04:55:39.266Z,9.00
2024-05-09T04:58:11.543Z,9.10
2024-05-09T05:00:40.588Z,9.20
2024-05-09T05:03:13.052Z,9.20
2024-05-09T05:05:43.581Z,9.20
2024-05-09T05:08:16.616Z,9.20
2024-05-09T05:10:44.894Z,9.30
2024-05-09T05:13:25.042Z,9.40
2024-05-09T05:15:56.580Z,9.40
2024-05-09T05:18:25.963Z,9.50
2024-05-09T05:20:53.618Z,9.50
2024-05-09T05:23:22.209Z,9.50
2024-05-09T05:25:52.512Z,9.60
2024-05-09T05:28:20.464Z,9.50
2024-05-09T05:30:47.606Z,9.70
2024-05-09T05:33:18.416Z,9.70
2024-05-09T05:35:46.068Z,9.70
2024-05-09T05:38:13.402Z,9.80
2024-05-09T05:40:41.230Z,9.80
2024-05-09T05:43:17.819Z,9.80
2024-05-09T05:45:45.742Z,9.90
2024-05-09T05:48:16.261Z,9.90
2024-05-09T05:50:44.372Z,9.90
2024-05-09T05:53:11.609Z,10.00
2024-05-09T05:55:40.238Z,9.90
2024-05-09T05:58:15.004Z,9.90
2024-05-09T06:00:42.926Z,10.00
2024-05-09T06:03:12.495Z,10.00
2024-05-09T06:05:40.885Z,10.00
2024-05-09T06:08:09.332Z,10.10
2024-05-09T06:10:39.690Z,10.10
2024-05-09T06:13:11.421Z,10.10
2024-05-09T06:15:39.972Z,10.10
2024-05-09T06:18:08.477Z,10.20
2024-05-09T06:20:38.025Z,10.20
2024-05-09T06:23:06.886Z,10.30
2024-05-09T06:25:35.282Z,10.30
2024-05-09T06:28:03.118Z,10.40
2024-05-09T06:30:38.554Z,10.40
2024-05-09T06:33:10.800Z,10.50
2024-05-09T06:35:39.926Z,10.50
2024-05-09T06:38:10.366Z,10.60
2024-05-09T06:40:43.167Z,10.60
2024-05-09T06:43:12.911Z,10.60
2024-05-09T06:45:40.431Z,10.70
2024-05-09T06:48:08.891Z,10.80
2024-05-09T06:50:38.332Z,10.80
2024-05-09T06:53:10.371Z,10.80
2024-05-09T06:55:38.068Z,10.90
2024-05-09T06:58:12.136Z,11.00
2024-05-09T07:00:41.486Z,11.10
2024-05-09T07:03:16.846Z,11.10
2024-05-09T07:05:47.341Z,11.20
2024-05-09T07:08:16.034Z,11.20
2024-05-09T07:10:43.588Z,11.30
2024-05-09T07:13:12.283Z,11.40
2024-05-09T07:15:40.101Z,11.50
2024-05-09T07:18:18.247Z,11.50
2024-05-09T07:20:47.556Z,11.50
2024-05-09T07:23:15.555Z,11.70
2024-05-09T07:25:43.284Z,11.70
2024-05-09T07:28:12.421Z,11.80
2024-05-09T07:30:39.624Z,11.90
2024-05-09T07:33:07.074Z,12.00
2024-05-09T07:35:34.709Z,12.10
2024-05-09T07:38:02.065Z,12.20
2024-05-09T07:40:35.709Z,12.30
2024-05-09T07:43:14.667Z,12.50
2024-05-09T07:45:50.815Z,12.50
2024-05-09T07:52:38.093Z,12.70
2024-05-09T07:53:47.682Z,12.80
2024-05-09T07:56:19.841Z,13.10
2024-05-09T07:58:50.707Z,13.10
2024-05-09T08:01:18.189Z,13.20
2024-05-09T08:03:45.851Z,13.20
2024-05-09T08:06:13.248Z,13.30
2024-05-09T08:08:40.498Z,13.40
2024-05-09T08:11:07.674Z,13.60
2024-05-09T08:13:34.955Z,13.50
2024-05-09T08:16:02.166Z,13.60
2024-05-09T08:18:30.798Z,13.70
2024-05-09T08:20:58.187Z,13.90
2024-05-09T08:23:25.379Z,13.90
2024-05-09T08:25:55.518Z,14.00
2024-05-09T08:28:22.816Z,14.20
2024-05-09T08:30:50.598Z,14.30
2024-05-09T08:33:18.079Z,14.30
2024-05-09T08:35:45.493Z,14.40
2024-05-09T08:38:12.691Z,14.50
2024-05-09T08:40:41.329Z,14.70
2024-05-09T08:43:11.821Z,14.80
2024-05-09T08:45:44.340Z,14.50
2024-05-09T08:48:15.304Z,14.80
2024-05-09T08:50:44.807Z,15.00
2024-05-09T08:53:14.675Z,15.20
2024-05-09T08:55:43.779Z,15.30
2024-05-09T08:58:18.428Z,14.90
2024-05-09T09:00:46.967Z,14.70
2024-05-09T09:03:19.926Z,14.60
2024-05-09T09:06:12.190Z,14.40
2024-05-09T09:08:39.939Z,14.40
2024-05-09T09:11:07.224Z,14.70
2024-05-09T09:13:34.494Z,14.70
2024-05-09T09:16:03.134Z,14.60
2024-05-09T09:18:31.077Z,14.60
2024-05-09T09:20:58.866Z,14.50
2024-05-09T09:23:29.949Z,14.50
2024-05-09T09:26:00.584Z,14.50
2024-05-09T09:28:27.937Z,14.50
2024-05-09T09:31:01.987Z,14.60
2024-05-09T09:33:31.724Z,14.60
2024-05-09T09:35:59.170Z,14.80
2024-05-09T09:38:31.755Z,15.50
2024-05-09T09:41:00.762Z,16.00
2024-05-09T09:43:28.703Z,16.40
2024-05-09T09:45:59.925Z,16.80
2024-05-09T09:48:28.596Z,17.30
2024-05-09T09:50:56.691Z,17.40
2024-05-09T09:53:24.307Z,17.20
2024-05-09T09:55:52.909Z,16.70
2024-05-09T09:58:20.914Z,16.50
2024-05-09T10:00:48.327Z,16.20
2024-05-09T10:03:15.642Z,16.60
2024-05-09T10:05:46.256Z,17.20
2024-05-09T10:08:16.794Z,17.40
2024-05-09T10:10:47.844Z,17.10
2024-05-09T10:13:15.717Z,16.90
2024-05-09T10:15:50.543Z,17.00
2024-05-09T10:18:22.810Z,17.70
2024-05-09T10:20:51.909Z,17.60
2024-05-09T10:23:27.292Z,17.60
2024-05-09T10:26:05.908Z,17.00
2024-05-09T10:28:37.556Z,16.50
2024-05-09T10:31:11.739Z,17.50
2024-05-09T10:33:50.652Z,18.20
2024-05-09T10:36:23.687Z,18.70
2024-05-09T10:38:52.111Z,18.70
2024-05-09T10:41:21.066Z,19.10
2024-05-09T10:43:50.209Z,19.10
2024-05-09T10:46:20.571Z,19.00
2024-05-09T10:48:49.838Z,18.40
2024-05-09T10:51:19.794Z,18.20
2024-05-09T10:53:48.171Z,17.70
2024-05-09T10:56:15.686Z,18.20
2024-05-09T10:58:43.072Z,18.60
2024-05-09T11:01:10.897Z,18.60
2024-05-09T11:03:39.266Z,19.00
2024-05-09T11:06:07.618Z,18.50
2024-05-09T11:08:36.386Z,18.00
2024-05-09T11:11:07.713Z,17.70
2024-05-09T11:13:37.329Z,17.80
2024-05-09T11:16:06.553Z,17.60
2024-05-09T11:18:38.128Z,17.90
2024-05-09T11:21:13.616Z,18.80
2024-05-09T11:23:41.358Z,19.40
2024-05-09T11:26:09.999Z,19.70
2024-05-09T11:28:37.201Z,19.40
2024-05-09T11:31:10.107Z,18.50
2024-05-09T11:33:46.719Z,18.30
2024-05-09T11:36:14.962Z,18.20
2024-05-09T11:38:42.236Z,18.20
2024-05-09T11:41:09.503Z,19.20
2024-05-09T11:43:36.646Z,19.90
2024-05-09T11:46:04.345Z,20.30
2024-05-09T11:48:32.324Z,20.60
2024-05-09T11:50:59.941Z,20.70
2024-05-09T11:53:27.095Z,20.70
2024-05-09T11:55:54.292Z,20.70
2024-05-09T11:58:23.011Z,21.10
2024-05-09T12:00:50.490Z,20.60
2024-05-09T12:03:18.013Z,21.00
2024-05-09T12:05:45.543Z,20.70
2024-05-09T12:08:13.196Z,20.80
2024-05-09T12:10:40.613Z,21.30
2024-05-09T12:13:08.157Z,21.50
2024-05-09T12:15:37.890Z,21.20
2024-05-09T12:18:07.317Z,20.30
2024-05-09T12:20:38.574Z,19.80
2024-05-09T12:23:09.433Z,19.90
2024-05-09T12:25:39.418Z,20.10
2024-05-09T12:28:10.355Z,20.20
2024-05-09T12:30:41.630Z,20.90
2024-05-09T12:33:13.526Z,21.10
2024-05-09T12:35:44.281Z,21.50
2024-05-09T12:38:15.067Z,20.90
2024-05-09T12:40:42.936Z,20.80
2024-05-09T12:43:11.351Z,21.10
2024-05-09T12:45:40.050Z,20.60
2024-05-09T12:48:12.315Z,20.30
2024-05-09T12:50:41.409Z,19.90
2024-05-09T12:53:08.833Z,19.70
2024-05-09T12:55:44.297Z,19.90
2024-05-09T12:58:21.942Z,20.50
2024-05-09T13:00:51.451Z,20.20
2024-05-09T13:03:19.244Z,20.00
2024-05-09T13:05:46.935Z,20.10
2024-05-09T13:08:14.356Z,20.60
2024-05-09T13:10:41.872Z,20.70
2024-05-09T13:13:12.875Z,20.90
2024-05-09T13:15:40.483Z,21.00
2024-05-09T13:18:08.758Z,21.10
2024-05-09T13:20:37.219Z,21.50
2024-05-09T13:23:07.231Z,22.00
2024-05-09T13:25:35.770Z,21.20
2024-05-09T13:28:04.253Z,20.70
2024-05-09T13:30:39.002Z,20.40
2024-05-09T13:33:10.368Z,20.90
2024-05-09T13:35:38.532Z,21.40
2024-05-09T13:38:05.952Z,21.50
2024-05-09T13:40:35.576Z,21.60
2024-05-09T13:43:05.106Z,20.70
2024-05-09T13:45:33.349Z,21.40
2024-05-09T13:48:02.103Z,21.80
2024-05-09T13:50:34.659Z,21.80
2024-05-09T13:53:08.695Z,22.10
2024-05-09T13:55:40.193Z,22.10
2024-05-09T13:58:08.706Z,22.50
2024-05-09T14:00:45.034Z,22.60
2024-05-09T14:03:17.139Z,22.60
2024-05-09T14:05:46.458Z,22.80
2024-05-09T14:08:15.712Z,22.40
2024-05-09T14:10:46.609Z,22.30
2024-05-09T14:13:14.794Z,21.50
2024-05-09T14:15:42.035Z,21.70
2024-05-09T14:18:13.079Z,22.10
2024-05-09T14:20:41.955Z,22.50
2024-05-09T14:23:09.418Z,22.70
2024-05-09T14:25:39.791Z,22.60
2024-05-09T14:28:09.988Z,22.80
2024-05-09T14:30:38.714Z,22.80
2024-05-09T14:33:08.218Z,22.00
2024-05-09T14:35:38.501Z,21.30
2024-05-09T14:38:07.946Z,20.90
2024-05-09T14:40:41.751Z,21.20
2024-05-09T14:43:15.888Z,21.70
2024-05-09T14:45:44.164Z,22.00
2024-05-09T14:48:13.320Z,21.90
2024-05-09T14:50:41.448Z,22.00
2024-05-09T14:53:10.726Z,22.00
2024-05-09T14:55:40.480Z,22.30
2024-05-09T14:58:13.010Z,22.30
2024-05-09T15:00:47.664Z,22.10
2024-05-09T15:03:18.757Z,22.30
2024-05-09T15:05:47.496Z,22.50
2024-05-09T15:08:16.627Z,22.40
2024-05-09T15:10:43.981Z,22.00
2024-05-09T15:13:13.281Z,22.00
2024-05-09T15:15:42.792Z,22.10
2024-05-09T15:18:10.198Z,22.10
2024-05-09T15:20:38.032Z,22.30
2024-05-09T15:23:06.795Z,22.30
2024-05-09T15:25:35.681Z,22.30
2024-05-09T15:28:04.398Z,22.40
2024-05-09T15:30:35.311Z,22.50
2024-05-09T15:33:07.130Z,22.50
2024-05-09T15:35:35.783Z,22.40
2024-05-09T15:38:04.116Z,22.30
2024-05-09T15:40:38.585Z,22.50
2024-05-09T15:43:09.553Z,22.50
2024-05-09T15:45:38.956Z,22.40
2024-05-09T15:48:08.449Z,22.40
2024-05-09T15:50:39.923Z,22.80
2024-05-09T15:53:11.929Z,22.50
2024-05-09T15:55:42.090Z,22.40
2024-05-09T15:58:10.271Z,22.40
2024-05-09T16:00:41.436Z,22.30
2024-05-09T16:03:12.218Z,22.20
2024-05-09T16:05:41.528Z,22.30
2024-05-09T16:08:09.321Z,22.20
2024-05-09T16:10:38.754Z,21.90
2024-05-09T16:13:06.563Z,21.90
2024-05-09T16:15:33.800Z,21.60
2024-05-09T16:18:01.198Z,21.60
2024-05-09T16:20:37.993Z,21.50
2024-05-09T16:23:08.831Z,21.20
2024-05-09T16:25:36.725Z,21.40
2024-05-09T16:28:08.367Z,21.50
2024-05-09T16:30:40.931Z,21.60
2024-05-09T16:33:09.129Z,21.50
2024-05-09T16:35:37.408Z,21.40
2024-05-09T16:38:05.986Z,21.40
2024-05-09T16:40:38.303Z,21.20
2024-05-09T16:43:09.055Z,21.10
2024-05-09T16:45:37.680Z,21.00
2024-05-09T16:48:06.187Z,21.10
2024-05-09T16:50:35.527Z,21.10
2024-05-09T16:53:05.003Z,21.10
2024-05-09T16:55:33.112Z,21.10
2024-05-09T16:58:01.353Z,21.00
2024-05-09T17:00:37.827Z,20.80
2024-05-09T17:03:11.474Z,20.80
2024-05-09T17:05:39.931Z,20.80
2024-05-09T17:08:08.160Z,20.70
2024-05-09T17:10:38.394Z,20.60
2024-05-09T17:13:07.507Z,20.50
2024-05-09T17:15:37.174Z,20.50
2024-05-09T17:18:06.581Z,20.40
2024-05-09T17:20:36.589Z,20.40
2024-05-09T17:23:12.668Z,20.40
2024-05-09T17:25:40.657Z,20.50
2024-05-09T17:28:08.835Z,20.30
2024-05-09T17:30:38.904Z,20.10
2024-05-09T17:33:09.179Z,19.90
2024-05-09T17:35:37.601Z,19.50
2024-05-09T17:38:06.360Z,19.40
2024-05-09T17:40:36.463Z,19.50
2024-05-09T17:43:07.078Z,19.30
2024-05-09T17:45:38.698Z,19.30
2024-05-09T17:48:07.294Z,19.00
2024-05-09T17:50:36.753Z,19.10
2024-05-09T17:53:08.839Z,18.90
2024-05-09T17:55:36.512Z,18.60
2024-05-09T17:58:05.091Z,18.50
2024-05-09T18:00:38.566Z,18.30
2024-05-09T18:03:11.732Z,18.10
2024-05-09T18:05:40.420Z,18.00
2024-05-09T18:08:08.542Z,17.80
2024-05-09T18:10:38.777Z,17.80
2024-05-09T18:13:09.007Z,17.70
2024-05-09T18:15:38.046Z,17.30
2024-05-09T18:18:07.198Z,17.20
2024-05-09T18:20:42.120Z,17.00
2024-05-09T18:23:14.821Z,17.10
2024-05-09T18:25:43.325Z,16.90
2024-05-09T18:28:10.849Z,16.70
2024-05-09T18:30:39.167Z,16.60
2024-05-09T18:33:08.167Z,16.40
2024-05-09T18:35:36.787Z,16.20
2024-05-09T18:38:05.615Z,16.10
2024-05-09T18:40:36.422Z,16.10
2024-05-09T18:43:07.859Z,16.20
2024-05-09T18:45:38.018Z,16.30
2024-05-09T18:48:07.513Z,16.00
2024-05-09T18:50:38.993Z,16.10
2024-05-09T18:53:08.613Z,16.20
2024-05-09T18:55:36.251Z,16.30
2024-05-09T18:58:07.145Z,16.30
2024-05-09T19:00:38.404Z,16.40
2024-05-09T19:03:10.474Z,16.40
2024-05-09T19:05:40.823Z,16.20
2024-05-09T19:08:09.071Z,15.90
2024-05-09T19:10:39.280Z,15.90
2024-05-09T19:13:11.552Z,16.00
2024-05-09T19:15:41.059Z,16.00
2024-05-09T19:18:09.889Z,16.10
2024-05-09T19:20:37.782Z,16.00
2024-05-09T19:23:06.843Z,16.00
2024-05-09T19:25:36.348Z,16.00
2024-05-09T19:28:05.028Z,16.00
2024-05-09T19:30:39.278Z,16.00
2024-05-09T19:33:11.276Z,15.80
2024-05-09T19:35:39.698Z,15.70
2024-05-09T19:38:07.068Z,15.60
2024-05-09T19:40:35.355Z,15.60
2024-05-09T19:43:04.869Z,15.60
2024-05-09T19:45:34.094Z,15.60
2024-05-09T19:48:02.421Z,15.40
2024-05-09T19:50:37.421Z,15.10
2024-05-09T19:53:11.120Z,14.60
2024-05-09T19:55:38.858Z,14.60
2024-05-09T19:58:07.681Z,14.60
2024-05-09T20:00:41.516Z,14.90
2024-05-09T20:03:12.642Z,15.20
2024-05-09T20:05:42.212Z,15.20
2024-05-09T20:08:09.599Z,15.10
2024-05-09T20:10:37.486Z,14.90
2024-05-09T20:13:06.968Z,14.90
2024-05-09T20:15:36.731Z,14.90
2024-05-09T20:18:04.796Z,15.10
2024-05-09T20:20:37.935Z,15.10
2024-05-09T20:23:09.677Z,15.00
2024-05-09T20:25:37.143Z,14.90
2024-05-09T20:28:06.161Z,14.90
2024-05-09T20:30:35.008Z,14.90
2024-05-09T20:33:04.950Z,14.90
2024-05-09T20:35:33.762Z,14.80
2024-05-09T20:38:02.215Z,14.70
2024-05-09T20:40:35.167Z,14.40
2024-05-09T20:43:06.459Z,14.10
2024-05-09T20:45:34.397Z,14.40
2024-05-09T20:48:02.232Z,14.40
2024-05-09T20:50:37.185Z,14.40
2024-05-09T20:53:10.794Z,14.40
2024-05-09T20:55:38.446Z,14.50
2024-05-09T20:58:05.764Z,14.40
2024-05-09T21:00:40.334Z,14.30
2024-05-09T21:03:12.571Z,14.40
2024-05-09T21:05:40.677Z,14.30
2024-05-09T21:08:08.439Z,14.00
2024-05-09T21:10:36.987Z,13.90
2024-05-09T21:13:05.843Z,13.80
2024-05-09T21:15:34.035Z,14.00
2024-05-09T21:18:01.370Z,14.10
2024-05-09T21:20:31.599Z,14.10
2024-05-09T21:23:01.441Z,14.00
2024-05-09T21:25:29.326Z,14.00
2024-05-09T21:27:56.800Z,14.00
2024-05-09T21:32:54.824Z,13.90
2024-05-09T21:35:22.057Z,13.80
2024-05-09T21:37:49.285Z,13.40
2024-05-09T21:40:26.498Z,13.60
2024-05-09T21:42:59.052Z,13.60
2024-05-09T21:45:26.644Z,13.60
2024-05-09T21:47:53.959Z,13.70
2024-05-09T21:50:27.956Z,13.70
2024-05-09T21:52:59.650Z,13.60
2024-05-09T21:55:26.805Z,13.50
2024-05-09T21:57:54.057Z,13.50
2024-05-09T22:00:29.006Z,13.50
2024-05-09T22:03:02.698Z,13.40
2024-05-09T22:05:30.057Z,13.40
2024-05-09T22:07:57.512Z,13.50
2024-05-09T22:10:30.855Z,13.50
2024-05-09T22:13:01.868Z,13.50
2024-05-09T22:15:29.254Z,13.50
2024-05-09T22:17:57.604Z,13.50
2024-05-09T22:20:34.073Z,13.10
2024-05-09T22:23:05.123Z,13.20
2024-05-09T22:25:32.997Z,13.30
2024-05-09T22:28:01.911Z,13.20
2024-05-09T22:32:59.582Z,12.70
2024-05-09T22:35:26.827Z,12.90
2024-05-09T22:37:54.036Z,13.00
2024-05-09T22:40:29.463Z,12.90
2024-05-09T22:43:06.239Z,13.00
2024-05-09T22:45:33.827Z,12.90
2024-05-09T22:48:01.534Z,13.00
2024-05-09T22:50:33.140Z,13.10
2024-05-09T22:53:01.156Z,13.00
2024-05-09T22:55:28.506Z,13.00
2024-05-09T22:57:55.967Z,12.90
2024-05-09T23:02:53.528Z,12.50
2024-05-09T23:05:20.874Z,12.20
2024-05-09T23:07:48.126Z,12.40
2024-05-09T23:10:21.355Z,12.70
2024-05-09T23:12:55.625Z,12.70
2024-05-09T23:15:23.124Z,12.80
2024-05-09T23:17:50.456Z,12.80
2024-05-09T23:20:26.536Z,12.80
2024-05-09T23:23:00.830Z,12.70
2024-05-09T23:25:28.013Z,12.60
2024-05-09T23:27:55.272Z,12.60
2024-05-09T23:30:33.012Z,12.70
2024-05-09T23:33:05.886Z,12.60
2024-05-09T23:35:33.270Z,12.60
2024-05-09T23:38:00.414Z,12.60
2024-05-09T23:40:37.448Z,12.60
2024-05-09T23:43:08.606Z,12.50
2024-05-09T23:45:36.139Z,12.50
2024-05-09T23:48:03.959Z,12.50
2024-05-09T23:50:35.841Z,12.50
2024-05-09T23:53:07.228Z,12.50
2024-05-09T23:55:35.668Z,12.40
2024-05-09T23:58:02.979Z,12.40
